sensor_id;sensor_type;location;lat;lon;timestamp;P1;durP1;ratioP1;P2;durP2;ratioP2
54849;SDS011;47660;51.334;12.396;2023-03-01T00:01:37;15.73;;;8.13;;
54849;SDS011;47660;51.334;12.396;2023-03-01T00:04:05;16.33;;;6.22;;
54849;SDS011;47660;51.334;12.396;2023-03-01T00:06:33;13.25;;;7.00;;
54849;SDS011;47660;51.334;12.396;2023-03-01T00:08:59;12.90;;;5.70;;
54849;SDS011;47660;51.334;12.396;2023-03-01T00:11:26;11.45;;;5.97;;
54849;SDS011;47660;51.334;12.396;2023-03-01T00:13:55;10.75;;;5.57;;
54849;SDS011;47660;51.334;12.396;2023-03-01T00:18:56;17.67;;;5.07;;
54849;SDS011;47660;51.334;12.396;2023-03-01T00:21:28;17.27;;;5.65;;
54849;SDS011;47660;51.334;12.396;2023-03-01T00:24:00;12.05;;;6.95;;
54849;SDS011;47660;51.334;12.396;2023-03-01T00:26:27;12.68;;;5.00;;
54849;SDS011;47660;51.334;12.396;2023-03-01T00:28:53;10.15;;;5.45;;
54849;SDS011;47660;51.334;12.396;2023-03-01T00:31:21;10.25;;;5.55;;
54849;SDS011;47660;51.334;12.396;2023-03-01T00:33:55;8.57;;;4.85;;
54849;SDS011;47660;51.334;12.396;2023-03-01T00:36:22;10.23;;;5.43;;
54849;SDS011;47660;51.334;12.396;2023-03-01T00:38:49;11.85;;;4.38;;
54849;SDS011;47660;51.334;12.396;2023-03-01T00:41:16;8.43;;;3.85;;
54849;SDS011;47660;51.334;12.396;2023-03-01T00:43:43;9.05;;;4.68;;
54849;SDS011;47660;51.334;12.396;2023-03-01T00:46:12;7.15;;;4.38;;
54849;SDS011;47660;51.334;12.396;2023-03-01T00:48:39;7.65;;;3.90;;
54849;SDS011;47660;51.334;12.396;2023-03-01T00:51:17;13.05;;;5.43;;
54849;SDS011;47660;51.334;12.396;2023-03-01T00:53:47;8.98;;;4.00;;
54849;SDS011;47660;51.334;12.396;2023-03-01T00:56:18;8.77;;;4.43;;
54849;SDS011;47660;51.334;12.396;2023-03-01T00:58:46;7.72;;;5.40;;
54849;SDS011;47660;51.334;12.396;2023-03-01T01:01:13;6.78;;;3.90;;
54849;SDS011;47660;51.334;12.396;2023-03-01T01:03:50;11.85;;;5.00;;
54849;SDS011;47660;51.334;12.396;2023-03-01T01:06:19;9.27;;;3.85;;
54849;SDS011;47660;51.334;12.396;2023-03-01T01:08:50;10.38;;;5.18;;
54849;SDS011;47660;51.334;12.396;2023-03-01T01:11:20;9.52;;;5.20;;
54849;SDS011;47660;51.334;12.396;2023-03-01T01:13:47;10.02;;;5.15;;
54849;SDS011;47660;51.334;12.396;2023-03-01T01:16:17;9.40;;;5.07;;
54849;SDS011;47660;51.334;12.396;2023-03-01T01:18:44;8.77;;;4.65;;
54849;SDS011;47660;51.334;12.396;2023-03-01T01:21:20;9.57;;;4.55;;
54849;SDS011;47660;51.334;12.396;2023-03-01T01:23:47;17.55;;;5.63;;
54849;SDS011;47660;51.334;12.396;2023-03-01T01:26:17;9.43;;;4.20;;
54849;SDS011;47660;51.334;12.396;2023-03-01T01:28:51;10.32;;;4.82;;
54849;SDS011;47660;51.334;12.396;2023-03-01T01:31:19;10.13;;;4.40;;
54849;SDS011;47660;51.334;12.396;2023-03-01T01:33:45;7.20;;;3.65;;
54849;SDS011;47660;51.334;12.396;2023-03-01T01:36:12;6.85;;;4.35;;
54849;SDS011;47660;51.334;12.396;2023-03-01T01:38:41;6.75;;;3.47;;
54849;SDS011;47660;51.334;12.396;2023-03-01T01:41:07;9.85;;;6.07;;
54849;SDS011;47660;51.334;12.396;2023-03-01T01:43:47;12.52;;;5.00;;
54849;SDS011;47660;51.334;12.396;2023-03-01T01:49:25;9.43;;;4.55;;
54849;SDS011;47660;51.334;12.396;2023-03-01T01:52:17;7.68;;;4.13;;
54849;SDS011;47660;51.334;12.396;2023-03-01T01:57:36;14.65;;;4.30;;
54849;SDS011;47660;51.334;12.396;2023-03-01T02:00:12;6.50;;;4.32;;
54849;SDS011;47660;51.334;12.396;2023-03-01T02:02:43;16.50;;;5.57;;
54849;SDS011;47660;51.334;12.396;2023-03-01T02:08:18;10.52;;;4.70;;
54849;SDS011;47660;51.334;12.396;2023-03-01T02:10:46;11.15;;;4.63;;
54849;SDS011;47660;51.334;12.396;2023-03-01T02:13:14;6.72;;;4.15;;
54849;SDS011;47660;51.334;12.396;2023-03-01T02:15:42;6.65;;;3.38;;
54849;SDS011;47660;51.334;12.396;2023-03-01T02:18:12;6.75;;;3.55;;
54849;SDS011;47660;51.334;12.396;2023-03-01T02:20:43;7.00;;;4.30;;
54849;SDS011;47660;51.334;12.396;2023-03-01T02:23:19;11.52;;;5.50;;
54849;SDS011;47660;51.334;12.396;2023-03-01T02:25:47;9.50;;;4.85;;
54849;SDS011;47660;51.334;12.396;2023-03-01T02:28:30;6.93;;;4.35;;
54849;SDS011;47660;51.334;12.396;2023-03-01T02:30:59;8.10;;;3.20;;
54849;SDS011;47660;51.334;12.396;2023-03-01T02:33:47;6.65;;;4.35;;
54849;SDS011;47660;51.334;12.396;2023-03-01T02:36:17;8.27;;;4.05;;
54849;SDS011;47660;51.334;12.396;2023-03-01T02:38:45;9.82;;;4.55;;
54849;SDS011;47660;51.334;12.396;2023-03-01T02:41:21;12.02;;;4.78;;
54849;SDS011;47660;51.334;12.396;2023-03-01T02:43:48;8.32;;;4.53;;
54849;SDS011;47660;51.334;12.396;2023-03-01T02:46:15;11.70;;;4.13;;
54849;SDS011;47660;51.334;12.396;2023-03-01T02:48:46;9.13;;;4.47;;
54849;SDS011;47660;51.334;12.396;2023-03-01T02:56:53;10.07;;;4.20;;
54849;SDS011;47660;51.334;12.396;2023-03-01T02:59:22;8.70;;;4.80;;
54849;SDS011;47660;51.334;12.396;2023-03-01T03:01:54;10.02;;;4.25;;
54849;SDS011;47660;51.334;12.396;2023-03-01T03:04:27;8.43;;;4.70;;
54849;SDS011;47660;51.334;12.396;2023-03-01T03:06:53;15.15;;;4.45;;
54849;SDS011;47660;51.334;12.396;2023-03-01T03:09:19;8.18;;;3.88;;
54849;SDS011;47660;51.334;12.396;2023-03-01T03:11:44;9.00;;;5.07;;
54849;SDS011;47660;51.334;12.396;2023-03-01T03:14:11;8.80;;;4.65;;
54849;SDS011;47660;51.334;12.396;2023-03-01T03:16:39;6.63;;;4.07;;
54849;SDS011;47660;51.334;12.396;2023-03-01T03:19:06;9.20;;;5.00;;
54849;SDS011;47660;51.334;12.396;2023-03-01T03:21:32;6.00;;;4.00;;
54849;SDS011;47660;51.334;12.396;2023-03-01T03:23:58;7.72;;;4.00;;
54849;SDS011;47660;51.334;12.396;2023-03-01T03:26:24;6.00;;;4.38;;
54849;SDS011;47660;51.334;12.396;2023-03-01T03:28:50;12.70;;;5.38;;
54849;SDS011;47660;51.334;12.396;2023-03-01T03:31:15;8.75;;;5.00;;
54849;SDS011;47660;51.334;12.396;2023-03-01T03:33:47;11.25;;;4.28;;
54849;SDS011;47660;51.334;12.396;2023-03-01T03:36:16;7.88;;;4.40;;
54849;SDS011;47660;51.334;12.396;2023-03-01T03:38:44;8.32;;;4.90;;
54849;SDS011;47660;51.334;12.396;2023-03-01T03:41:11;7.65;;;4.20;;
54849;SDS011;47660;51.334;12.396;2023-03-01T03:43:38;7.50;;;3.83;;
54849;SDS011;47660;51.334;12.396;2023-03-01T03:46:08;11.20;;;4.68;;
54849;SDS011;47660;51.334;12.396;2023-03-01T03:48:37;7.38;;;4.38;;
54849;SDS011;47660;51.334;12.396;2023-03-01T03:51:13;8.60;;;4.88;;
54849;SDS011;47660;51.334;12.396;2023-03-01T03:53:41;10.60;;;4.25;;
54849;SDS011;47660;51.334;12.396;2023-03-01T03:56:07;8.77;;;5.10;;
54849;SDS011;47660;51.334;12.396;2023-03-01T03:58:32;6.45;;;3.97;;
54849;SDS011;47660;51.334;12.396;2023-03-01T04:00:58;8.55;;;3.90;;
54849;SDS011;47660;51.334;12.396;2023-03-01T04:03:26;7.25;;;4.18;;
54849;SDS011;47660;51.334;12.396;2023-03-01T04:05:52;9.50;;;5.13;;
54849;SDS011;47660;51.334;12.396;2023-03-01T04:08:21;12.95;;;4.60;;
54849;SDS011;47660;51.334;12.396;2023-03-01T04:10:49;7.97;;;4.32;;
54849;SDS011;47660;51.334;12.396;2023-03-01T04:13:17;10.00;;;4.43;;
54849;SDS011;47660;51.334;12.396;2023-03-01T04:15:53;10.52;;;4.50;;
54849;SDS011;47660;51.334;12.396;2023-03-01T04:18:20;8.07;;;4.47;;
54849;SDS011;47660;51.334;12.396;2023-03-01T04:20:48;11.63;;;3.95;;
54849;SDS011;47660;51.334;12.396;2023-03-01T04:23:18;7.60;;;4.97;;
54849;SDS011;47660;51.334;12.396;2023-03-01T04:28:18;7.03;;;3.22;;
54849;SDS011;47660;51.334;12.396;2023-03-01T04:30:44;7.15;;;4.65;;
54849;SDS011;47660;51.334;12.396;2023-03-01T04:33:10;6.32;;;4.13;;
54849;SDS011;47660;51.334;12.396;2023-03-01T04:35:36;9.02;;;5.18;;
54849;SDS011;47660;51.334;12.396;2023-03-01T04:38:03;8.73;;;3.88;;
54849;SDS011;47660;51.334;12.396;2023-03-01T04:40:29;11.65;;;4.88;;
54849;SDS011;47660;51.334;12.396;2023-03-01T04:42:55;7.07;;;4.10;;
54849;SDS011;47660;51.334;12.396;2023-03-01T04:45:25;10.00;;;5.65;;
54849;SDS011;47660;51.334;12.396;2023-03-01T04:47:50;7.22;;;4.32;;
54849;SDS011;47660;51.334;12.396;2023-03-01T04:50:19;8.15;;;4.03;;
54849;SDS011;47660;51.334;12.396;2023-03-01T04:52:47;6.20;;;3.92;;
54849;SDS011;47660;51.334;12.396;2023-03-01T04:55:13;11.55;;;5.30;;
54849;SDS011;47660;51.334;12.396;2023-03-01T04:57:43;9.93;;;4.78;;
54849;SDS011;47660;51.334;12.396;2023-03-01T05:00:10;9.98;;;4.55;;
54849;SDS011;47660;51.334;12.396;2023-03-01T05:05:18;9.38;;;4.10;;
54849;SDS011;47660;51.334;12.396;2023-03-01T05:07:52;7.47;;;3.88;;
54849;SDS011;47660;51.334;12.396;2023-03-01T05:10:19;13.10;;;4.55;;
54849;SDS011;47660;51.334;12.396;2023-03-01T05:12:45;7.68;;;4.80;;
54849;SDS011;47660;51.334;12.396;2023-03-01T05:15:11;11.80;;;4.85;;
54849;SDS011;47660;51.334;12.396;2023-03-01T05:17:37;4.95;;;2.95;;
54849;SDS011;47660;51.334;12.396;2023-03-01T05:20:02;8.05;;;4.88;;
54849;SDS011;47660;51.334;12.396;2023-03-01T05:22:33;7.03;;;4.47;;
54849;SDS011;47660;51.334;12.396;2023-03-01T05:24:58;9.25;;;4.57;;
54849;SDS011;47660;51.334;12.396;2023-03-01T05:27:24;5.90;;;3.58;;
54849;SDS011;47660;51.334;12.396;2023-03-01T05:29:51;14.68;;;5.47;;
54849;SDS011;47660;51.334;12.396;2023-03-01T05:32:17;8.60;;;4.97;;
54849;SDS011;47660;51.334;12.396;2023-03-01T05:34:42;12.68;;;5.63;;
54849;SDS011;47660;51.334;12.396;2023-03-01T05:37:08;10.25;;;4.90;;
54849;SDS011;47660;51.334;12.396;2023-03-01T05:39:33;6.75;;;3.97;;
54849;SDS011;47660;51.334;12.396;2023-03-01T05:44:27;6.68;;;3.42;;
54849;SDS011;47660;51.334;12.396;2023-03-01T05:46:53;9.88;;;5.30;;
54849;SDS011;47660;51.334;12.396;2023-03-01T05:49:22;12.85;;;5.68;;
54849;SDS011;47660;51.334;12.396;2023-03-01T05:51:53;8.07;;;4.15;;
54849;SDS011;47660;51.334;12.396;2023-03-01T05:54:20;7.30;;;4.47;;
54849;SDS011;47660;51.334;12.396;2023-03-01T05:56:46;9.88;;;4.68;;
54849;SDS011;47660;51.334;12.396;2023-03-01T05:59:12;10.18;;;6.13;;
54849;SDS011;47660;51.334;12.396;2023-03-01T06:01:42;8.63;;;4.05;;
54849;SDS011;47660;51.334;12.396;2023-03-01T06:04:10;8.70;;;5.28;;
54849;SDS011;47660;51.334;12.396;2023-03-01T06:06:38;8.27;;;5.35;;
54849;SDS011;47660;51.334;12.396;2023-03-01T06:09:07;9.15;;;4.22;;
54849;SDS011;47660;51.334;12.396;2023-03-01T06:11:35;14.35;;;5.80;;
54849;SDS011;47660;51.334;12.396;2023-03-01T06:14:01;6.68;;;4.47;;
54849;SDS011;47660;51.334;12.396;2023-03-01T06:16:27;9.88;;;3.85;;
54849;SDS011;47660;51.334;12.396;2023-03-01T06:18:52;10.23;;;4.45;;
54849;SDS011;47660;51.334;12.396;2023-03-01T06:21:22;9.35;;;5.10;;
54849;SDS011;47660;51.334;12.396;2023-03-01T06:23:48;8.10;;;4.35;;
54849;SDS011;47660;51.334;12.396;2023-03-01T06:26:16;11.35;;;5.28;;
54849;SDS011;47660;51.334;12.396;2023-03-01T06:28:42;10.55;;;5.50;;
54849;SDS011;47660;51.334;12.396;2023-03-01T06:31:11;11.05;;;5.05;;
54849;SDS011;47660;51.334;12.396;2023-03-01T06:33:36;12.90;;;5.60;;
54849;SDS011;47660;51.334;12.396;2023-03-01T06:36:04;9.32;;;5.18;;
54849;SDS011;47660;51.334;12.396;2023-03-01T06:38:30;9.93;;;5.60;;
54849;SDS011;47660;51.334;12.396;2023-03-01T06:41:01;6.60;;;3.75;;
54849;SDS011;47660;51.334;12.396;2023-03-01T06:43:27;13.43;;;5.00;;
54849;SDS011;47660;51.334;12.396;2023-03-01T06:45:53;13.38;;;6.10;;
54849;SDS011;47660;51.334;12.396;2023-03-01T06:50:47;7.25;;;4.68;;
54849;SDS011;47660;51.334;12.396;2023-03-01T06:53:12;15.02;;;5.20;;
54849;SDS011;47660;51.334;12.396;2023-03-01T06:55:38;9.38;;;5.03;;
54849;SDS011;47660;51.334;12.396;2023-03-01T07:00:29;7.53;;;4.07;;
54849;SDS011;47660;51.334;12.396;2023-03-01T07:02:55;7.63;;;4.80;;
54849;SDS011;47660;51.334;12.396;2023-03-01T07:05:27;15.00;;;6.00;;
54849;SDS011;47660;51.334;12.396;2023-03-01T07:07:53;10.15;;;4.95;;
54849;SDS011;47660;51.334;12.396;2023-03-01T07:10:20;13.93;;;5.45;;
54849;SDS011;47660;51.334;12.396;2023-03-01T07:12:45;8.23;;;5.78;;
54849;SDS011;47660;51.334;12.396;2023-03-01T07:15:13;14.13;;;5.95;;
54849;SDS011;47660;51.334;12.396;2023-03-01T07:17:43;15.15;;;5.28;;
54849;SDS011;47660;51.334;12.396;2023-03-01T07:20:09;13.23;;;5.55;;
54849;SDS011;47660;51.334;12.396;2023-03-01T07:22:38;7.93;;;4.95;;
54849;SDS011;47660;51.334;12.396;2023-03-01T07:25:05;7.30;;;4.07;;
54849;SDS011;47660;51.334;12.396;2023-03-01T07:27:33;9.55;;;5.35;;
54849;SDS011;47660;51.334;12.396;2023-03-01T07:29:59;10.13;;;5.60;;
54849;SDS011;47660;51.334;12.396;2023-03-01T07:32:27;11.77;;;5.07;;
54849;SDS011;47660;51.334;12.396;2023-03-01T07:34:57;9.10;;;5.68;;
54849;SDS011;47660;51.334;12.396;2023-03-01T07:37:22;6.55;;;5.03;;
54849;SDS011;47660;51.334;12.396;2023-03-01T07:39:47;9.30;;;4.53;;
54849;SDS011;47660;51.334;12.396;2023-03-01T07:44:38;9.20;;;4.28;;
54849;SDS011;47660;51.334;12.396;2023-03-01T07:47:04;11.02;;;5.75;;
54849;SDS011;47660;51.334;12.396;2023-03-01T07:49:29;8.85;;;5.00;;
54849;SDS011;47660;51.334;12.396;2023-03-01T07:51:55;12.73;;;6.65;;
54849;SDS011;47660;51.334;12.396;2023-03-01T07:54:21;14.77;;;4.85;;
54849;SDS011;47660;51.334;12.396;2023-03-01T07:56:49;15.88;;;5.47;;
54849;SDS011;47660;51.334;12.396;2023-03-01T07:59:17;11.10;;;5.95;;
54849;SDS011;47660;51.334;12.396;2023-03-01T08:01:42;17.13;;;8.05;;
54849;SDS011;47660;51.334;12.396;2023-03-01T08:04:08;15.45;;;7.07;;
54849;SDS011;47660;51.334;12.396;2023-03-01T08:06:34;10.88;;;5.22;;
54849;SDS011;47660;51.334;12.396;2023-03-01T08:09:03;8.32;;;5.35;;
54849;SDS011;47660;51.334;12.396;2023-03-01T08:11:29;9.32;;;5.65;;
54849;SDS011;47660;51.334;12.396;2023-03-01T08:13:56;9.52;;;5.15;;
54849;SDS011;47660;51.334;12.396;2023-03-01T08:16:22;8.90;;;5.57;;
54849;SDS011;47660;51.334;12.396;2023-03-01T08:18:51;10.82;;;5.22;;
54849;SDS011;47660;51.334;12.396;2023-03-01T08:21:17;16.60;;;7.07;;
54849;SDS011;47660;51.334;12.396;2023-03-01T08:23:43;12.05;;;5.20;;
54849;SDS011;47660;51.334;12.396;2023-03-01T08:28:44;11.77;;;5.57;;
54849;SDS011;47660;51.334;12.396;2023-03-01T08:33:50;14.13;;;6.38;;
54849;SDS011;47660;51.334;12.396;2023-03-01T08:36:20;15.15;;;6.63;;
54849;SDS011;47660;51.334;12.396;2023-03-01T08:38:49;13.82;;;6.20;;
54849;SDS011;47660;51.334;12.396;2023-03-01T08:41:14;11.43;;;6.70;;
54849;SDS011;47660;51.334;12.396;2023-03-01T08:43:43;13.57;;;6.43;;
54849;SDS011;47660;51.334;12.396;2023-03-01T08:46:09;19.40;;;10.02;;
54849;SDS011;47660;51.334;12.396;2023-03-01T08:48:37;16.98;;;8.00;;
54849;SDS011;47660;51.334;12.396;2023-03-01T08:51:10;18.20;;;6.85;;
54849;SDS011;47660;51.334;12.396;2023-03-01T08:53:37;9.45;;;5.95;;
54849;SDS011;47660;51.334;12.396;2023-03-01T08:56:03;11.88;;;6.68;;
54849;SDS011;47660;51.334;12.396;2023-03-01T08:58:32;12.48;;;6.05;;
54849;SDS011;47660;51.334;12.396;2023-03-01T09:00:57;16.52;;;6.72;;
54849;SDS011;47660;51.334;12.396;2023-03-01T09:03:25;16.70;;;6.22;;
54849;SDS011;47660;51.334;12.396;2023-03-01T09:05:51;14.30;;;6.15;;
54849;SDS011;47660;51.334;12.396;2023-03-01T09:08:20;8.82;;;5.55;;
54849;SDS011;47660;51.334;12.396;2023-03-01T09:10:48;14.70;;;6.40;;
54849;SDS011;47660;51.334;12.396;2023-03-01T09:13:16;14.90;;;5.80;;
54849;SDS011;47660;51.334;12.396;2023-03-01T09:15:41;12.85;;;6.40;;
54849;SDS011;47660;51.334;12.396;2023-03-01T09:18:07;13.85;;;6.28;;
54849;SDS011;47660;51.334;12.396;2023-03-01T09:20:32;14.32;;;6.03;;
54849;SDS011;47660;51.334;12.396;2023-03-01T09:22:58;13.90;;;7.30;;
54849;SDS011;47660;51.334;12.396;2023-03-01T09:25:23;13.00;;;5.32;;
54849;SDS011;47660;51.334;12.396;2023-03-01T09:27:52;15.70;;;7.55;;
54849;SDS011;47660;51.334;12.396;2023-03-01T09:30:20;13.75;;;6.35;;
54849;SDS011;47660;51.334;12.396;2023-03-01T09:32:46;14.20;;;6.18;;
54849;SDS011;47660;51.334;12.396;2023-03-01T09:35:17;14.98;;;7.05;;
54849;SDS011;47660;51.334;12.396;2023-03-01T09:37:48;14.23;;;6.40;;
54849;SDS011;47660;51.334;12.396;2023-03-01T09:40:36;13.13;;;5.57;;
54849;SDS011;47660;51.334;12.396;2023-03-01T09:45:59;11.95;;;5.95;;
54849;SDS011;47660;51.334;12.396;2023-03-01T09:48:34;12.32;;;6.28;;
54849;SDS011;47660;51.334;12.396;2023-03-01T09:51:09;13.02;;;6.18;;
54849;SDS011;47660;51.334;12.396;2023-03-01T09:53:42;15.50;;;5.77;;
54849;SDS011;47660;51.334;12.396;2023-03-01T09:56:20;13.20;;;6.10;;
54849;SDS011;47660;51.334;12.396;2023-03-01T10:09:37;12.10;;;5.53;;
54849;SDS011;47660;51.334;12.396;2023-03-01T10:12:08;14.35;;;6.72;;
54849;SDS011;47660;51.334;12.396;2023-03-01T10:17:42;16.08;;;5.82;;
54849;SDS011;47660;51.334;12.396;2023-03-01T10:22:46;20.65;;;6.32;;
54849;SDS011;47660;51.334;12.396;2023-03-01T10:25:15;11.50;;;5.57;;
54849;SDS011;47660;51.334;12.396;2023-03-01T10:33:40;11.95;;;5.32;;
54849;SDS011;47660;51.334;12.396;2023-03-01T10:36:02;13.15;;;5.75;;
54849;SDS011;47660;51.334;12.396;2023-03-01T10:38:33;16.55;;;6.20;;
54849;SDS011;47660;51.334;12.396;2023-03-01T10:41:19;15.50;;;5.82;;
54849;SDS011;47660;51.334;12.396;2023-03-01T10:43:46;11.02;;;5.53;;
54849;SDS011;47660;51.334;12.396;2023-03-01T10:51:45;8.75;;;4.93;;
54849;SDS011;47660;51.334;12.396;2023-03-01T10:56:52;16.33;;;6.28;;
54849;SDS011;47660;51.334;12.396;2023-03-01T10:59:34;13.10;;;5.55;;
54849;SDS011;47660;51.334;12.396;2023-03-01T11:02:17;11.13;;;4.75;;
54849;SDS011;47660;51.334;12.396;2023-03-01T11:05:03;12.77;;;5.30;;
54849;SDS011;47660;51.334;12.396;2023-03-01T11:07:46;12.20;;;4.88;;
54849;SDS011;47660;51.334;12.396;2023-03-01T11:10:22;12.13;;;4.93;;
54849;SDS011;47660;51.334;12.396;2023-03-01T11:12:53;12.15;;;5.55;;
54849;SDS011;47660;51.334;12.396;2023-03-01T11:15:30;15.60;;;6.13;;
54849;SDS011;47660;51.334;12.396;2023-03-01T11:17:55;15.82;;;7.10;;
54849;SDS011;47660;51.334;12.396;2023-03-01T11:25:27;16.85;;;7.25;;
54849;SDS011;47660;51.334;12.396;2023-03-01T11:27:58;18.80;;;6.50;;
54849;SDS011;47660;51.334;12.396;2023-03-01T11:35:32;17.90;;;7.50;;
54849;SDS011;47660;51.334;12.396;2023-03-01T11:52:03;15.73;;;7.68;;
54849;SDS011;47660;51.334;12.396;2023-03-01T12:08:58;15.98;;;6.35;;
54849;SDS011;47660;51.334;12.396;2023-03-01T12:22:28;12.70;;;5.82;;
54849;SDS011;47660;51.334;12.396;2023-03-01T12:25:16;14.23;;;5.43;;
54849;SDS011;47660;51.334;12.396;2023-03-01T12:36:06;18.95;;;8.75;;
54849;SDS011;47660;51.334;12.396;2023-03-01T12:49:02;10.82;;;4.78;;
54849;SDS011;47660;51.334;12.396;2023-03-01T12:51:40;9.10;;;3.88;;
54849;SDS011;47660;51.334;12.396;2023-03-01T12:54:15;12.65;;;5.50;;
54849;SDS011;47660;51.334;12.396;2023-03-01T12:56:44;12.85;;;5.63;;
54849;SDS011;47660;51.334;12.396;2023-03-01T13:10:34;16.33;;;5.63;;
54849;SDS011;47660;51.334;12.396;2023-03-01T13:13:20;8.07;;;4.32;;
54849;SDS011;47660;51.334;12.396;2023-03-01T13:15:50;13.55;;;4.75;;
54849;SDS011;47660;51.334;12.396;2023-03-01T13:26:18;9.52;;;4.38;;
54849;SDS011;47660;51.334;12.396;2023-03-01T13:31:09;13.20;;;6.38;;
54849;SDS011;47660;51.334;12.396;2023-03-01T13:33:40;11.32;;;5.40;;
54849;SDS011;47660;51.334;12.396;2023-03-01T13:36:07;13.45;;;6.25;;
54849;SDS011;47660;51.334;12.396;2023-03-01T13:38:36;14.65;;;5.70;;
54849;SDS011;47660;51.334;12.396;2023-03-01T13:41:12;13.60;;;6.10;;
54849;SDS011;47660;51.334;12.396;2023-03-01T13:43:42;12.00;;;5.93;;
54849;SDS011;47660;51.334;12.396;2023-03-01T13:46:18;11.88;;;4.72;;
54849;SDS011;47660;51.334;12.396;2023-03-01T13:48:48;9.90;;;4.75;;
54849;SDS011;47660;51.334;12.396;2023-03-01T13:51:20;9.43;;;4.65;;
54849;SDS011;47660;51.334;12.396;2023-03-01T13:53:56;12.57;;;5.03;;
54849;SDS011;47660;51.334;12.396;2023-03-01T13:56:24;12.90;;;5.57;;
54849;SDS011;47660;51.334;12.396;2023-03-01T13:58:59;10.98;;;4.40;;
54849;SDS011;47660;51.334;12.396;2023-03-01T14:03:57;13.50;;;5.05;;
54849;SDS011;47660;51.334;12.396;2023-03-01T14:06:28;9.57;;;4.97;;
54849;SDS011;47660;51.334;12.396;2023-03-01T14:09:17;12.00;;;4.90;;
54849;SDS011;47660;51.334;12.396;2023-03-01T14:19:47;9.60;;;4.78;;
54849;SDS011;47660;51.334;12.396;2023-03-01T14:22:24;10.23;;;4.88;;
54849;SDS011;47660;51.334;12.396;2023-03-01T14:24:55;10.40;;;4.63;;
54849;SDS011;47660;51.334;12.396;2023-03-01T14:27:51;13.25;;;4.97;;
54849;SDS011;47660;51.334;12.396;2023-03-01T14:30:22;8.20;;;4.13;;
54849;SDS011;47660;51.334;12.396;2023-03-01T14:32:54;9.55;;;4.32;;
54849;SDS011;47660;51.334;12.396;2023-03-01T14:35:23;8.93;;;4.50;;
54849;SDS011;47660;51.334;12.396;2023-03-01T14:37:51;10.77;;;4.68;;
54849;SDS011;47660;51.334;12.396;2023-03-01T14:43:19;8.02;;;4.32;;
54849;SDS011;47660;51.334;12.396;2023-03-01T14:45:48;9.52;;;4.30;;
54849;SDS011;47660;51.334;12.396;2023-03-01T14:48:34;9.70;;;4.70;;
54849;SDS011;47660;51.334;12.396;2023-03-01T14:51:00;7.40;;;4.30;;
54849;SDS011;47660;51.334;12.396;2023-03-01T14:53:29;15.45;;;5.95;;
54849;SDS011;47660;51.334;12.396;2023-03-01T14:56:01;9.82;;;4.68;;
54849;SDS011;47660;51.334;12.396;2023-03-01T14:58:31;8.20;;;4.65;;
54849;SDS011;47660;51.334;12.396;2023-03-01T15:00:59;7.03;;;4.10;;
54849;SDS011;47660;51.334;12.396;2023-03-01T15:03:31;9.40;;;4.72;;
54849;SDS011;47660;51.334;12.396;2023-03-01T15:06:00;10.32;;;4.60;;
54849;SDS011;47660;51.334;12.396;2023-03-01T15:08:26;10.25;;;4.43;;
54849;SDS011;47660;51.334;12.396;2023-03-01T15:13:49;8.55;;;4.35;;
54849;SDS011;47660;51.334;12.396;2023-03-01T15:16:17;8.05;;;4.00;;
54849;SDS011;47660;51.334;12.396;2023-03-01T15:18:45;6.75;;;4.00;;
54849;SDS011;47660;51.334;12.396;2023-03-01T15:21:23;8.93;;;4.72;;
54849;SDS011;47660;51.334;12.396;2023-03-01T15:24:25;9.35;;;4.82;;
54849;SDS011;47660;51.334;12.396;2023-03-01T15:27:00;10.23;;;4.13;;
54849;SDS011;47660;51.334;12.396;2023-03-01T15:29:32;7.13;;;4.38;;
54849;SDS011;47660;51.334;12.396;2023-03-01T15:34:55;8.18;;;4.43;;
54849;SDS011;47660;51.334;12.396;2023-03-01T15:40:19;9.73;;;3.90;;
54849;SDS011;47660;51.334;12.396;2023-03-01T15:43:00;7.63;;;3.78;;
54849;SDS011;47660;51.334;12.396;2023-03-01T15:45:29;7.10;;;3.55;;
54849;SDS011;47660;51.334;12.396;2023-03-01T15:47:56;5.25;;;3.17;;
54849;SDS011;47660;51.334;12.396;2023-03-01T15:50:31;8.63;;;3.78;;
54849;SDS011;47660;51.334;12.396;2023-03-01T15:53:01;7.90;;;3.53;;
54849;SDS011;47660;51.334;12.396;2023-03-01T15:55:32;7.43;;;3.45;;
54849;SDS011;47660;51.334;12.396;2023-03-01T16:00:46;5.18;;;3.00;;
54849;SDS011;47660;51.334;12.396;2023-03-01T16:03:22;6.30;;;3.83;;
54849;SDS011;47660;51.334;12.396;2023-03-01T16:05:48;5.80;;;2.92;;
54849;SDS011;47660;51.334;12.396;2023-03-01T16:08:16;12.98;;;3.60;;
54849;SDS011;47660;51.334;12.396;2023-03-01T16:10:42;7.30;;;2.75;;
54849;SDS011;47660;51.334;12.396;2023-03-01T16:13:13;10.00;;;3.53;;
54849;SDS011;47660;51.334;12.396;2023-03-01T16:15:40;9.05;;;3.45;;
54849;SDS011;47660;51.334;12.396;2023-03-01T16:18:09;6.60;;;3.72;;
54849;SDS011;47660;51.334;12.396;2023-03-01T16:20:36;8.40;;;3.45;;
54849;SDS011;47660;51.334;12.396;2023-03-01T16:23:03;9.05;;;3.65;;
54849;SDS011;47660;51.334;12.396;2023-03-01T16:25:30;8.40;;;3.45;;
54849;SDS011;47660;51.334;12.396;2023-03-01T16:27:58;8.25;;;4.30;;
54849;SDS011;47660;51.334;12.396;2023-03-01T16:30:25;7.22;;;3.85;;
54849;SDS011;47660;51.334;12.396;2023-03-01T16:32:51;9.35;;;3.80;;
54849;SDS011;47660;51.334;12.396;2023-03-01T16:35:20;6.25;;;3.13;;
54849;SDS011;47660;51.334;12.396;2023-03-01T16:37:46;11.50;;;3.58;;
54849;SDS011;47660;51.334;12.396;2023-03-01T16:40:20;6.88;;;3.50;;
54849;SDS011;47660;51.334;12.396;2023-03-01T16:42:51;7.38;;;3.50;;
54849;SDS011;47660;51.334;12.396;2023-03-01T16:45:21;7.97;;;3.50;;
54849;SDS011;47660;51.334;12.396;2023-03-01T16:47:46;11.95;;;4.10;;
54849;SDS011;47660;51.334;12.396;2023-03-01T16:50:11;9.32;;;3.80;;
54849;SDS011;47660;51.334;12.396;2023-03-01T16:52:37;6.72;;;3.08;;
54849;SDS011;47660;51.334;12.396;2023-03-01T16:55:03;10.85;;;4.05;;
54849;SDS011;47660;51.334;12.396;2023-03-01T16:57:30;10.30;;;3.65;;
54849;SDS011;47660;51.334;12.396;2023-03-01T16:59:55;13.30;;;4.85;;
54849;SDS011;47660;51.334;12.396;2023-03-01T17:02:23;10.88;;;4.32;;
54849;SDS011;47660;51.334;12.396;2023-03-01T17:04:53;10.27;;;4.35;;
54849;SDS011;47660;51.334;12.396;2023-03-01T17:07:20;10.07;;;5.03;;
54849;SDS011;47660;51.334;12.396;2023-03-01T17:09:45;8.65;;;4.45;;
54849;SDS011;47660;51.334;12.396;2023-03-01T17:12:14;13.40;;;4.95;;
54849;SDS011;47660;51.334;12.396;2023-03-01T17:14:41;8.60;;;4.63;;
54849;SDS011;47660;51.334;12.396;2023-03-01T17:17:07;9.65;;;3.85;;
54849;SDS011;47660;51.334;12.396;2023-03-01T17:19:41;9.10;;;3.97;;
54849;SDS011;47660;51.334;12.396;2023-03-01T17:22:08;9.00;;;3.92;;
54849;SDS011;47660;51.334;12.396;2023-03-01T17:24:35;9.77;;;4.15;;
54849;SDS011;47660;51.334;12.396;2023-03-01T17:27:06;8.05;;;3.70;;
54849;SDS011;47660;51.334;12.396;2023-03-01T17:29:32;9.52;;;4.40;;
54849;SDS011;47660;51.334;12.396;2023-03-01T17:32:04;7.18;;;3.55;;
54849;SDS011;47660;51.334;12.396;2023-03-01T17:34:32;7.40;;;3.22;;
54849;SDS011;47660;51.334;12.396;2023-03-01T17:36:58;11.77;;;4.10;;
54849;SDS011;47660;51.334;12.396;2023-03-01T17:39:23;8.15;;;3.83;;
54849;SDS011;47660;51.334;12.396;2023-03-01T17:42:02;9.88;;;4.35;;
54849;SDS011;47660;51.334;12.396;2023-03-01T17:44:30;8.07;;;4.28;;
54849;SDS011;47660;51.334;12.396;2023-03-01T17:46:58;8.88;;;3.75;;